createdAt,value
2023-04-07T00:01:05.793Z,56.25
2023-04-07T00:03:33.930Z,56.27
2023-04-07T00:06:01.178Z,55.55
2023-04-07T00:08:28.506Z,56.07
2023-04-07T00:10:55.450Z,55.66
2023-04-07T00:13:22.956Z,55.71
2023-04-07T00:15:49.861Z,55.86
2023-04-07T00:18:17.126Z,56.11
2023-04-07T00:20:44.084Z,55.87
2023-04-07T00:23:11.436Z,55.83
2023-04-07T00:25:38.419Z,55.95
2023-04-07T00:28:05.703Z,55.67
2023-04-07T00:30:32.842Z,56.54
2023-04-07T00:33:00.450Z,57.26
2023-04-07T00:35:27.474Z,56.02
2023-04-07T00:37:54.921Z,55.92
2023-04-07T00:40:21.974Z,56.52
2023-04-07T00:42:49.732Z,56.38
2023-04-07T00:45:16.760Z,57.56
2023-04-07T00:47:44.265Z,56.36
2023-04-07T00:50:11.688Z,56.66
2023-04-07T00:52:39.913Z,56.37
2023-04-07T00:55:07.735Z,56.96
2023-04-07T00:57:35.109Z,58.24
2023-04-07T01:00:06.859Z,58.59
2023-04-07T01:02:42.141Z,58.71
2023-04-07T01:05:18.369Z,59.37
2023-04-07T01:08:11.708Z,59.76
2023-04-07T01:10:49.720Z,57.18
2023-04-07T01:13:41.947Z,58.42
2023-04-07T01:16:37.136Z,57.42
2023-04-07T01:19:16.036Z,58.42
2023-04-07T01:21:49.992Z,56.55
2023-04-07T01:24:26.547Z,57.22
2023-04-07T01:27:00.098Z,56.62
2023-04-07T01:29:28.220Z,57.01
2023-04-07T01:31:56.012Z,56.07
2023-04-07T01:34:26.122Z,56.40
2023-04-07T01:36:54.603Z,56.07
2023-04-07T01:39:22.480Z,56.82
2023-04-07T01:41:51.589Z,56.30
2023-04-07T01:44:20.365Z,57.81
2023-04-07T01:46:48.001Z,56.23
2023-04-07T01:49:18.360Z,57.04
2023-04-07T01:51:50.319Z,57.03
2023-04-07T01:54:18.235Z,56.39
2023-04-07T01:56:45.321Z,55.79
2023-04-07T01:59:13.284Z,56.81
2023-04-07T02:01:41.220Z,56.68
2023-04-07T02:04:18.000Z,56.10
2023-04-07T02:06:49.309Z,56.63
2023-04-07T02:09:20.749Z,56.34
2023-04-07T02:11:49.493Z,56.63
2023-04-07T02:14:17.919Z,55.60
2023-04-07T02:16:59.397Z,56.52
2023-04-07T02:19:27.742Z,56.78
2023-04-07T02:21:55.128Z,56.96
2023-04-07T02:24:22.579Z,57.10
2023-04-07T02:26:49.537Z,56.93
2023-04-07T02:29:17.175Z,57.49
2023-04-07T02:31:44.272Z,56.87
2023-04-07T02:34:11.986Z,58.13
2023-04-07T02:36:39.370Z,57.07
2023-04-07T02:39:09.401Z,57.49
2023-04-07T02:41:36.448Z,58.64
2023-04-07T02:44:04.547Z,58.11
2023-04-07T02:46:31.574Z,57.67
2023-04-07T02:48:58.835Z,57.95
2023-04-07T02:51:27.144Z,57.91
2023-04-07T02:53:55.129Z,58.11
2023-04-07T02:56:22.136Z,58.19
2023-04-07T02:58:49.600Z,59.13
2023-04-07T03:01:19.051Z,57.95
2023-04-07T03:03:47.967Z,58.67
2023-04-07T03:06:19.574Z,59.64
2023-04-07T03:09:01.196Z,59.84
2023-04-07T03:11:28.212Z,59.31
2023-04-07T03:13:57.682Z,59.82
2023-04-07T03:16:27.259Z,59.73
2023-04-07T03:19:02.861Z,60.22
2023-04-07T03:21:34.010Z,59.87
2023-04-07T03:24:01.954Z,60.42
2023-04-07T03:26:29.037Z,59.62
2023-04-07T03:28:57.228Z,59.53
2023-04-07T03:31:24.630Z,60.26
2023-04-07T03:33:53.844Z,61.17
2023-04-07T03:36:22.305Z,60.22
2023-04-07T03:38:50.592Z,59.84
2023-04-07T03:41:19.077Z,60.07
2023-04-07T03:43:47.789Z,60.50
2023-04-07T03:46:15.687Z,60.34
2023-04-07T03:48:43.925Z,59.95
2023-04-07T03:51:11.482Z,61.41
2023-04-07T03:53:39.117Z,60.42
2023-04-07T03:56:18.159Z,60.32
2023-04-07T03:58:49.615Z,61.78
2023-04-07T04:01:25.035Z,61.26
2023-04-07T04:03:52.920Z,62.00
2023-04-07T04:09:49.605Z,62.33
2023-04-07T04:12:17.629Z,62.05
2023-04-07T04:15:02.594Z,62.03
2023-04-07T04:17:31.114Z,63.06
2023-04-07T04:19:58.572Z,62.03
2023-04-07T04:22:36.475Z,61.98
2023-04-07T04:25:04.823Z,62.68
2023-04-07T04:27:32.276Z,61.79
2023-04-07T04:30:08.852Z,62.39
2023-04-07T04:32:41.008Z,62.28
2023-04-07T04:35:09.799Z,61.81
2023-04-07T04:37:45.450Z,62.84
2023-04-07T04:40:14.817Z,62.41
2023-04-07T04:42:44.019Z,62.31
2023-04-07T04:45:13.196Z,61.34
2023-04-07T04:47:45.737Z,61.62
2023-04-07T04:50:13.742Z,61.26
2023-04-07T04:52:42.784Z,61.41
2023-04-07T04:55:18.346Z,61.32
2023-04-07T04:57:46.520Z,61.84
2023-04-07T05:00:18.970Z,60.55
2023-04-07T05:02:49.459Z,61.40
2023-04-07T05:05:17.043Z,61.14
2023-04-07T05:07:44.165Z,60.71
2023-04-07T05:10:14.623Z,61.76
2023-04-07T05:12:47.616Z,61.93
2023-04-07T05:15:15.792Z,61.87
2023-04-07T05:17:50.577Z,62.19
2023-04-07T05:20:23.784Z,62.80
2023-04-07T05:22:51.198Z,62.23
2023-04-07T05:25:22.225Z,63.05
2023-04-07T05:27:52.607Z,62.10
2023-04-07T05:30:23.267Z,60.80
2023-04-07T05:32:54.083Z,61.47
2023-04-07T05:35:45.817Z,60.18
2023-04-07T05:38:13.231Z,61.38
2023-04-07T05:40:42.413Z,61.39
2023-04-07T05:43:14.327Z,59.96
2023-04-07T05:45:41.719Z,60.52
2023-04-07T05:48:09.514Z,59.32
2023-04-07T05:50:45.335Z,58.45
2023-04-07T05:53:16.459Z,57.98
2023-04-07T05:55:43.905Z,56.21
2023-04-07T05:58:21.740Z,56.08
2023-04-07T06:00:52.299Z,55.08
2023-04-07T06:03:19.497Z,55.30
2023-04-07T06:06:11.303Z,55.06
2023-04-07T06:08:38.634Z,54.92
2023-04-07T06:11:06.715Z,55.09
2023-04-07T06:13:34.585Z,55.91
2023-04-07T06:16:02.492Z,55.08
2023-04-07T06:18:29.450Z,55.74
2023-04-07T06:20:57.178Z,55.17
2023-04-07T06:23:26.076Z,55.16
2023-04-07T06:25:53.651Z,55.38
2023-04-07T06:28:22.842Z,55.09
2023-04-07T06:30:50.809Z,55.33
2023-04-07T06:33:18.904Z,55.58
2023-04-07T06:35:46.643Z,55.63
2023-04-07T06:38:13.820Z,55.10
2023-04-07T06:40:41.264Z,55.91
2023-04-07T06:43:08.830Z,55.16
2023-04-07T06:45:50.144Z,55.32
2023-04-07T06:48:17.122Z,54.72
2023-04-07T06:50:47.659Z,54.86
2023-04-07T06:53:14.664Z,54.61
2023-04-07T06:55:42.059Z,54.13
2023-04-07T06:58:12.127Z,53.51
2023-04-07T07:00:42.214Z,53.54
2023-04-07T07:03:09.384Z,53.41
2023-04-07T07:05:37.010Z,53.77
2023-04-07T07:08:04.049Z,53.15
2023-04-07T07:10:31.622Z,52.83
2023-04-07T07:12:58.903Z,52.45
2023-04-07T07:15:26.215Z,52.21
2023-04-07T07:17:53.200Z,52.42
2023-04-07T07:20:20.847Z,50.44
2023-04-07T07:22:47.916Z,49.71
2023-04-07T07:25:15.341Z,50.01
2023-04-07T07:27:42.331Z,48.72
2023-04-07T07:30:10.006Z,48.89
2023-04-07T07:32:36.965Z,47.87
2023-04-07T07:35:04.620Z,48.14
2023-04-07T07:37:32.078Z,48.34
2023-04-07T07:39:59.649Z,48.02
2023-04-07T07:42:29.730Z,46.63
2023-04-07T07:44:57.406Z,46.65
2023-04-07T07:47:24.483Z,46.10
2023-04-07T07:49:51.807Z,45.05
2023-04-07T07:52:18.900Z,44.90
2023-04-07T07:54:46.330Z,45.24
2023-04-07T07:57:14.667Z,45.70
2023-04-07T07:59:42.071Z,45.76
2023-04-07T08:02:09.661Z,46.60
2023-04-07T08:04:37.491Z,46.20
2023-04-07T08:07:04.599Z,46.55
2023-04-07T08:09:34.907Z,46.51
2023-04-07T08:12:01.893Z,46.61
2023-04-07T08:14:29.525Z,45.62
2023-04-07T08:16:56.587Z,46.30
2023-04-07T08:19:24.882Z,46.55
2023-04-07T08:21:51.965Z,45.88
2023-04-07T08:24:19.867Z,45.97
2023-04-07T08:26:46.952Z,45.92
2023-04-07T08:29:15.862Z,46.25
2023-04-07T08:31:45.424Z,46.15
2023-04-07T08:34:16.597Z,45.73
2023-04-07T08:36:44.134Z,45.92
2023-04-07T08:39:14.810Z,45.39
2023-04-07T08:41:42.562Z,44.76
2023-04-07T08:44:10.658Z,45.35
2023-04-07T08:46:41.310Z,45.30
2023-04-07T08:49:10.260Z,45.17
2023-04-07T08:51:38.060Z,45.95
2023-04-07T08:54:06.183Z,45.29
2023-04-07T08:56:40.877Z,45.36
2023-04-07T08:59:14.036Z,44.94
2023-04-07T09:01:41.524Z,43.99
2023-04-07T09:04:10.562Z,44.80
2023-04-07T09:06:38.233Z,44.53
2023-04-07T09:09:08.423Z,45.46
2023-04-07T09:11:36.400Z,45.47
2023-04-07T09:14:03.779Z,45.20
2023-04-07T09:16:33.955Z,43.99
2023-04-07T09:19:01.937Z,44.45
2023-04-07T09:21:47.296Z,44.76
2023-04-07T09:24:22.232Z,44.57
2023-04-07T09:26:49.185Z,44.80
2023-04-07T09:29:19.015Z,45.13
2023-04-07T09:31:50.754Z,45.33
2023-04-07T09:34:32.692Z,44.90
2023-04-07T09:36:59.855Z,45.35
2023-04-07T09:39:27.362Z,44.61
2023-04-07T09:41:54.315Z,44.38
2023-04-07T09:44:22.098Z,45.16
2023-04-07T09:46:56.832Z,45.72
2023-04-07T09:49:24.881Z,44.64
2023-04-07T09:52:05.219Z,43.83
2023-04-07T09:54:32.938Z,44.94
2023-04-07T09:57:01.540Z,44.28
2023-04-07T09:59:29.965Z,44.40
2023-04-07T10:01:57.617Z,44.04
2023-04-07T10:04:25.885Z,44.56
2023-04-07T10:06:56.394Z,43.88
2023-04-07T10:09:25.498Z,43.84
2023-04-07T10:11:56.869Z,43.40
2023-04-07T10:14:28.533Z,43.69
2023-04-07T10:16:56.008Z,43.29
2023-04-07T10:19:24.386Z,45.51
2023-04-07T10:21:52.924Z,44.10
2023-04-07T10:24:29.386Z,45.01
2023-04-07T10:27:08.307Z,45.63
2023-04-07T10:29:38.275Z,45.44
2023-04-07T10:32:05.293Z,45.29
2023-04-07T10:34:48.754Z,45.66
2023-04-07T10:37:21.444Z,45.59
2023-04-07T10:39:49.473Z,45.04
2023-04-07T10:42:35.347Z,46.35
2023-04-07T10:45:03.633Z,46.24
2023-04-07T10:47:32.859Z,45.38
2023-04-07T10:50:15.838Z,45.19
2023-04-07T10:52:42.818Z,45.47
2023-04-07T10:55:28.533Z,45.16
2023-04-07T10:58:14.467Z,45.20
2023-04-07T11:00:41.954Z,45.11
2023-04-07T11:03:16.092Z,44.95
2023-04-07T11:05:48.422Z,45.13
2023-04-07T11:08:15.583Z,44.92
2023-04-07T11:10:47.698Z,45.12
2023-04-07T11:13:14.596Z,43.65
2023-04-07T11:15:44.282Z,42.93
2023-04-07T11:18:17.930Z,42.92
2023-04-07T11:20:48.750Z,43.42
2023-04-07T11:23:16.663Z,42.43
2023-04-07T11:25:45.378Z,41.91
2023-04-07T11:28:13.451Z,42.41
2023-04-07T11:30:52.082Z,42.40
2023-04-07T11:33:26.308Z,41.42
2023-04-07T11:35:57.912Z,42.13
2023-04-07T11:38:26.222Z,41.71
2023-04-07T11:40:54.154Z,41.34
2023-04-07T11:43:22.959Z,40.92
2023-04-07T11:46:09.043Z,41.30
2023-04-07T11:48:37.248Z,41.25
2023-04-07T11:51:04.879Z,40.25
2023-04-07T11:53:37.969Z,40.27
2023-04-07T11:56:06.914Z,40.91
2023-04-07T11:58:33.983Z,40.51
2023-04-07T12:01:09.062Z,41.81
2023-04-07T12:03:37.684Z,41.39
2023-04-07T12:06:05.612Z,41.87
2023-04-07T12:08:43.518Z,42.84
2023-04-07T12:11:10.901Z,42.63
2023-04-07T12:13:38.138Z,42.73
2023-04-07T12:16:05.595Z,43.68
2023-04-07T12:18:34.122Z,43.02
2023-04-07T12:21:01.527Z,43.55
2023-04-07T12:23:28.973Z,43.71
2023-04-07T12:25:56.378Z,42.49
2023-04-07T12:28:23.343Z,43.07
2023-04-07T12:30:52.944Z,43.61
2023-04-07T12:33:19.941Z,43.65
2023-04-07T12:35:47.652Z,43.08
2023-04-07T12:38:14.920Z,43.76
2023-04-07T12:40:42.230Z,44.29
2023-04-07T12:43:09.280Z,44.47
2023-04-07T12:45:38.736Z,45.28
2023-04-07T12:48:08.820Z,45.17
2023-04-07T12:50:36.995Z,45.76
2023-04-07T12:53:05.378Z,46.32
2023-04-07T12:55:36.765Z,46.86
2023-04-07T12:58:04.768Z,47.21
2023-04-07T13:00:32.068Z,47.28
2023-04-07T13:02:59.136Z,47.67
2023-04-07T13:05:27.464Z,48.14
2023-04-07T13:07:54.419Z,49.40
2023-04-07T13:10:21.718Z,48.62
2023-04-07T13:12:48.796Z,49.04
2023-04-07T13:15:16.689Z,49.14
2023-04-07T13:17:43.935Z,49.19
2023-04-07T13:20:11.363Z,50.16
2023-04-07T13:22:48.328Z,50.15
2023-04-07T13:25:17.970Z,49.47
2023-04-07T13:27:45.340Z,49.95
2023-04-07T13:30:13.259Z,50.85
2023-04-07T13:32:40.411Z,52.21
2023-04-07T13:35:07.908Z,51.75
2023-04-07T13:37:34.889Z,53.16
2023-04-07T13:40:02.180Z,53.63
2023-04-07T13:42:29.070Z,54.37
2023-04-07T13:44:56.389Z,54.37
2023-04-07T13:47:24.682Z,55.05
2023-04-07T13:49:54.888Z,54.64
2023-04-07T13:52:21.920Z,55.70
2023-04-07T13:54:49.293Z,55.29
2023-04-07T13:57:20.762Z,55.09
2023-04-07T13:59:49.350Z,55.88
2023-04-07T14:02:17.147Z,55.65
2023-04-07T14:04:44.732Z,56.04
2023-04-07T14:07:14.414Z,56.47
2023-04-07T14:09:42.893Z,57.69
2023-04-07T14:12:10.456Z,56.57
2023-04-07T14:14:40.565Z,57.30
2023-04-07T14:17:07.457Z,57.98
2023-04-07T14:19:35.131Z,56.39
2023-04-07T14:22:04.479Z,56.60
2023-04-07T14:24:31.816Z,57.14
2023-04-07T14:26:59.098Z,57.14
2023-04-07T14:29:26.672Z,56.08
2023-04-07T14:31:53.758Z,57.20
2023-04-07T14:34:20.921Z,56.52
2023-04-07T14:36:58.860Z,55.54
2023-04-07T14:39:26.545Z,54.97
2023-04-07T14:41:54.024Z,55.11
2023-04-07T14:44:21.468Z,55.33
2023-04-07T14:46:48.560Z,54.41
2023-04-07T14:49:15.997Z,55.07
2023-04-07T14:51:43.071Z,55.14
2023-04-07T14:54:10.708Z,54.53
2023-04-07T14:56:38.098Z,53.79
2023-04-07T14:59:08.008Z,54.00
2023-04-07T15:01:35.009Z,53.61
2023-04-07T15:04:02.429Z,54.53
2023-04-07T15:06:29.450Z,55.48
2023-04-07T15:09:01.619Z,55.21
2023-04-07T15:11:30.936Z,55.28
2023-04-07T15:14:00.951Z,57.19
2023-04-07T15:16:28.117Z,56.97
2023-04-07T15:18:55.526Z,58.53
2023-04-07T15:21:22.532Z,58.17
2023-04-07T15:23:50.211Z,59.04
2023-04-07T15:26:22.387Z,60.54
2023-04-07T15:28:49.719Z,61.04
2023-04-07T15:31:18.425Z,60.39
2023-04-07T15:33:46.678Z,61.33
2023-04-07T15:36:13.863Z,62.56
2023-04-07T15:38:41.200Z,65.51
2023-04-07T15:41:08.159Z,67.74
2023-04-07T15:43:36.993Z,68.67
2023-04-07T15:46:03.966Z,70.53
2023-04-07T15:48:33.596Z,71.12
2023-04-07T15:51:00.600Z,71.04
2023-04-07T15:53:27.801Z,71.01
2023-04-07T15:55:56.135Z,69.34
2023-04-07T15:58:23.793Z,68.13
2023-04-07T16:00:53.920Z,68.12
2023-04-07T16:03:21.489Z,67.64
2023-04-07T16:05:51.310Z,69.59
2023-04-07T16:08:19.565Z,69.83
2023-04-07T16:10:46.525Z,69.72
2023-04-07T16:13:14.132Z,69.77
2023-04-07T16:15:41.928Z,71.80
2023-04-07T16:18:10.294Z,72.74
2023-04-07T16:20:37.206Z,74.64
2023-04-07T16:23:04.478Z,76.34
2023-04-07T16:25:31.418Z,77.54
2023-04-07T16:27:58.726Z,75.84
2023-04-07T16:30:25.952Z,77.59
2023-04-07T16:32:53.444Z,76.68
2023-04-07T16:35:20.549Z,77.52
2023-04-07T16:37:50.828Z,79.49
2023-04-07T16:40:20.920Z,78.06
2023-04-07T16:42:48.150Z,79.49
2023-04-07T16:45:15.103Z,80.74
2023-04-07T16:47:44.681Z,81.80
2023-04-07T16:50:12.063Z,82.05
2023-04-07T16:52:40.575Z,84.57
2023-04-07T16:55:09.801Z,86.41
2023-04-07T16:57:37.431Z,86.79
2023-04-07T17:00:06.801Z,88.35
2023-04-07T17:02:34.220Z,86.20
2023-04-07T17:05:01.462Z,88.33
2023-04-07T17:07:28.710Z,89.95
2023-04-07T17:09:55.639Z,90.63
2023-04-07T17:12:26.222Z,91.17
2023-04-07T17:14:53.264Z,92.49
2023-04-07T17:17:20.776Z,92.90
2023-04-07T17:19:50.012Z,92.61
2023-04-07T17:22:17.493Z,93.72
2023-04-07T17:24:44.430Z,95.42
2023-04-07T17:27:12.302Z,97.76
2023-04-07T17:29:39.367Z,95.01
2023-04-07T17:32:07.852Z,95.69
2023-04-07T17:34:35.118Z,97.02
2023-04-07T17:37:02.316Z,97.06
2023-04-07T17:39:29.271Z,96.95
2023-04-07T17:41:56.762Z,95.53
2023-04-07T17:44:23.709Z,97.02
2023-04-07T17:46:50.949Z,99.60
2023-04-07T17:49:18.034Z,100.00
2023-04-07T17:51:45.865Z,100.00
2023-04-07T17:54:12.848Z,100.00
2023-04-07T17:56:40.114Z,100.00
2023-04-07T17:59:07.061Z,100.00
2023-04-07T18:01:34.499Z,100.00
2023-04-07T18:04:03.112Z,100.00
2023-04-07T18:06:32.403Z,100.00
2023-04-07T18:09:01.000Z,100.00
2023-04-07T18:11:28.561Z,100.00
2023-04-07T18:13:56.652Z,100.00
2023-04-07T18:16:24.046Z,100.00
2023-04-07T18:18:51.432Z,100.00
2023-04-07T18:21:18.824Z,100.00
2023-04-07T18:23:45.802Z,100.00
2023-04-07T18:26:16.292Z,100.00
2023-04-07T18:28:45.778Z,100.00
2023-04-07T18:31:13.563Z,100.00
2023-04-07T18:33:40.537Z,100.00
2023-04-07T18:36:08.407Z,100.00
2023-04-07T18:38:36.094Z,100.00
2023-04-07T18:41:03.930Z,100.00
2023-04-07T18:43:31.504Z,100.00
2023-04-07T18:45:59.023Z,100.00
2023-04-07T18:48:26.598Z,100.00
2023-04-07T18:50:54.862Z,100.00
2023-04-07T18:53:22.369Z,100.00
2023-04-07T18:55:50.098Z,100.00
2023-04-07T18:58:17.206Z,100.00
2023-04-07T19:00:44.799Z,100.00
2023-04-07T19:03:12.116Z,100.00
2023-04-07T19:05:40.145Z,100.00
2023-04-07T19:08:07.925Z,100.00
2023-04-07T19:10:35.657Z,100.00
2023-04-07T19:13:02.806Z,100.00
2023-04-07T19:15:34.215Z,100.00
2023-04-07T19:18:04.673Z,100.00
2023-04-07T19:20:33.768Z,100.00
2023-04-07T19:23:02.106Z,100.00
2023-04-07T19:25:30.876Z,100.00
2023-04-07T19:27:58.873Z,100.00
2023-04-07T19:30:26.340Z,100.00
2023-04-07T19:32:53.615Z,100.00
2023-04-07T19:35:21.334Z,100.00
2023-04-07T19:37:48.609Z,100.00
2023-04-07T19:40:16.222Z,100.00
2023-04-07T19:42:43.222Z,100.00
2023-04-07T19:45:10.993Z,100.00
2023-04-07T19:47:38.526Z,100.00
2023-04-07T19:50:06.357Z,100.00
2023-04-07T19:52:33.294Z,100.00
2023-04-07T19:55:02.321Z,100.00
2023-04-07T19:57:31.260Z,100.00
2023-04-07T19:59:58.544Z,100.00
2023-04-07T20:02:25.637Z,100.00
2023-04-07T20:04:53.355Z,100.00
2023-04-07T20:07:22.864Z,100.00
2023-04-07T20:09:57.512Z,100.00
2023-04-07T20:12:24.584Z,100.00
2023-04-07T20:14:51.899Z,100.00
2023-04-07T20:17:19.466Z,100.00
2023-04-07T20:19:48.000Z,100.00
2023-04-07T20:22:15.680Z,100.00
2023-04-07T20:24:42.988Z,100.00
2023-04-07T20:27:10.144Z,100.00
2023-04-07T20:29:39.761Z,100.00
2023-04-07T20:32:06.810Z,100.00
2023-04-07T20:34:36.530Z,100.00
2023-04-07T20:37:04.491Z,100.00
2023-04-07T20:39:31.883Z,100.00
2023-04-07T20:41:59.529Z,100.00
2023-04-07T20:44:29.141Z,100.00
2023-04-07T20:46:56.443Z,100.00
2023-04-07T20:49:23.993Z,100.00
2023-04-07T20:51:50.917Z,100.00
2023-04-07T20:54:18.310Z,100.00
2023-04-07T20:56:45.353Z,100.00
2023-04-07T20:59:12.635Z,100.00
2023-04-07T21:01:39.741Z,100.00
2023-04-07T21:04:07.328Z,100.00
2023-04-07T21:06:34.352Z,100.00
2023-04-07T21:09:02.473Z,100.00
2023-04-07T21:11:36.045Z,100.00
2023-04-07T21:14:03.911Z,100.00
2023-04-07T21:16:30.977Z,100.00
2023-04-07T21:18:58.347Z,100.00
2023-04-07T21:21:26.147Z,100.00
2023-04-07T21:23:53.508Z,100.00
2023-04-07T21:26:21.064Z,100.00
2023-04-07T21:28:48.632Z,100.00
2023-04-07T21:31:24.779Z,100.00
2023-04-07T21:33:53.644Z,100.00
2023-04-07T21:36:20.801Z,100.00
2023-04-07T21:38:48.421Z,100.00
2023-04-07T21:41:15.665Z,100.00
2023-04-07T21:43:45.349Z,100.00
2023-04-07T21:46:14.306Z,100.00
2023-04-07T21:48:42.209Z,100.00
2023-04-07T21:51:09.264Z,100.00
2023-04-07T21:53:36.832Z,100.00
2023-04-07T21:56:04.278Z,100.00
2023-04-07T21:58:31.899Z,100.00
2023-04-07T22:00:59.770Z,100.00
2023-04-07T22:03:29.441Z,100.00
2023-04-07T22:06:00.287Z,100.00
2023-04-07T22:08:30.930Z,100.00
2023-04-07T22:10:58.927Z,100.00
2023-04-07T22:13:26.495Z,100.00
2023-04-07T22:15:53.729Z,100.00
2023-04-07T22:18:22.159Z,100.00
2023-04-07T22:20:49.398Z,100.00
2023-04-07T22:23:16.820Z,100.00
2023-04-07T22:25:43.873Z,100.00
2023-04-07T22:28:11.444Z,100.00
2023-04-07T22:30:38.493Z,100.00
2023-04-07T22:33:07.125Z,100.00
2023-04-07T22:35:34.176Z,100.00
2023-04-07T22:38:02.017Z,100.00
2023-04-07T22:40:29.115Z,100.00
2023-04-07T22:42:56.578Z,100.00
2023-04-07T22:45:23.578Z,100.00
2023-04-07T22:47:51.700Z,100.00
2023-04-07T22:50:19.566Z,100.00
2023-04-07T22:52:46.883Z,100.00
2023-04-07T22:55:13.849Z,100.00
2023-04-07T22:57:41.224Z,100.00
2023-04-07T23:00:08.707Z,100.00
2023-04-07T23:02:38.919Z,100.00
2023-04-07T23:05:07.793Z,100.00
2023-04-07T23:07:35.087Z,100.00
2023-04-07T23:10:02.205Z,100.00
2023-04-07T23:12:29.916Z,100.00
2023-04-07T23:14:56.846Z,100.00
2023-04-07T23:17:24.149Z,100.00
2023-04-07T23:19:51.235Z,100.00
2023-04-07T23:22:22.228Z,100.00
2023-04-07T23:24:49.226Z,100.00
2023-04-07T23:27:16.789Z,100.00
2023-04-07T23:29:46.427Z,100.00
2023-04-07T23:32:14.292Z,100.00
2023-04-07T23:34:41.632Z,100.00
2023-04-07T23:37:09.202Z,100.00
2023-04-07T23:39:38.916Z,100.00
2023-04-07T23:42:06.314Z,100.00
2023-04-07T23:44:35.738Z,100.00
2023-04-07T23:47:02.987Z,100.00
2023-04-07T23:49:30.041Z,100.00
2023-04-07T23:51:57.267Z,100.00
2023-04-07T23:54:24.303Z,100.00
2023-04-07T23:56:51.668Z,100.00
2023-04-07T23:59:18.740Z,100.00
